Flight Track Log - Related Links

Times and Time Zones

All times are in EDT time to prevent confusion due to time zone crossing. See the DAL3995 flight status page for this flight to view local times or setup timezone preferences in your user account.

Time Position Orientation Groundspeed Altitude Reporting Facility
EDT Latitude Longitude Course Direction KTS MPH feet Rate Location/Type
Thu 08:07:35 PM 42.2081 -83.3675 247° West 149 171 1,100  Level Cleveland Center
Thu 08:08:06 PM 42.1997 -83.3944 247° West 164 189 2,100 1,753 Climbing Cleveland Center
Thu 08:09:04 PM 42.2011 -83.4606 272° West 201 231 3,700 1,672 Climbing Cleveland Center
Thu 08:09:07 PM 42.2022 -83.4681 281° West 219 252 3,800 1,065 Climbing Cleveland Center
Thu 08:10:06 PM 42.2036 -83.5572 271° West 246 283 4,800 1,082 Climbing Cleveland Center
Thu 08:10:08 PM 42.2053 -83.5644 287° West 279 321 4,900 190 Climbing Cleveland Center
Thu 08:11:09 PM 42.2156 -83.6703 278° West 265 305 5,000 689 Climbing Cleveland Center
Thu 08:12:10 PM 42.2231 -83.7581 277° West 265 305 6,300 1,138 Climbing Cleveland Center
Thu 08:13:05 PM 42.2333 -83.8644 277° West 279 321 7,200 871 Climbing Cleveland Center
Thu 08:13:12 PM 42.2331 -83.8611 96° East 275 316 7,200 1,217 Level Cleveland Center
Thu 08:14:14 PM 42.2428 -83.9692 277° West 288 331 8,600 1,355 Climbing Cleveland Center
Thu 08:15:16 PM 42.2553 -84.0992 277° West 294 338 10,000 677 Climbing Cleveland Center
Thu 08:16:18 PM 42.2669 -84.2203 277° West 324 373 10,000  Level Cleveland Center
Thu 08:17:20 PM 42.2608 -84.3556 267° West 359 413 10,000  Level Cleveland Center
Thu 08:18:23 PM 42.2600 -84.4933 270° West 367 422 10,000  Level Cleveland Center
Thu 08:19:04 PM 42.2567 -84.5942 267° West 370 426 10,000  Level Chicago Center
Thu 08:20:06 PM 42.2575 -84.7350 271° West 375 432 10,000  Level Chicago Center
Thu 08:21:09 PM 42.2719 -84.8742 278° West 376 433 10,000 -336 Level Chicago Center
Thu 08:22:11 PM 42.2814 -84.9917 276° West 320 368 9,300 -1,355 Descending Chicago Center
Thu 08:23:13 PM 42.2933 -85.1178 277° West 287 330 7,200 -1,742 Descending Chicago Center
Thu 08:24:15 PM 42.2983 -85.2222 274° West 280 322 5,700 -1,452 Descending Chicago Center
Thu 08:25:17 PM 42.2886 -85.3217 263° West 272 313 4,200 -1,452 Descending Chicago Center
Thu 08:26:19 PM 42.2908 -85.4206 272° West 274 315 2,700 -871 Descending Chicago Center
Thu 08:27:21 PM 42.3017 -85.5083 280° West 248 285 2,400 -484 Descending Chicago Center
Thu 08:28:23 PM 42.2833 -85.5561 243° Southwest 188 216 1,700 -677 Descending Chicago Center
Thu 08:29:25 PM 42.2431 -85.5536 177° South 143 165 1,000 -677 Descending Chicago Center
Thu 08:31:00 PM 42.2333 -85.5500 180° South  Level FlightAware
Thu 08:38:00 PM 42.2344 -85.5516 180° South  Level Estimated

Login

Don't have an account? Register now (free) for customized features, flight alerts, and more!